Time;durP1;ratioP1;P1;durP2;ratioP2;P2;SDS_P1;SDS_P2;PMS_P1;PMS_P2;Temp;Humidity;BMP_temperature;BMP_pressure;BME280_temperature;BME280_humidity;BME280_pressure;Samples;Min_cycle;Max_cycle;Signal;HPM_P1;HPM_P2
2023/07/12 00:00:43;;;;;;;0.70;0.70;;;;;;;14.28;100.00;99882.23;105020;1256;71810;-49
2023/07/12 00:03:11;;;;;;;1.40;0.80;;;;;;;14.26;100.00;99877.44;105135;1253;61626;-49
2023/07/12 00:05:38;;;;;;;0.90;0.90;;;;;;;14.27;100.00;99877.59;105247;1253;60540;-49
2023/07/12 00:08:11;;;;;;;2.50;0.70;;;;;;;14.28;100.00;99875.55;105077;1251;71730;-49
2023/07/12 00:10:38;;;;;;;2.40;0.60;;;;;;;14.28;100.00;99880.41;105431;1258;66362;-49
2023/07/12 00:13:06;;;;;;;0.70;0.70;;;;;;;14.29;100.00;99879.42;105051;1251;73144;-50
2023/07/12 00:15:33;;;;;;;1.20;0.70;;;;;;;14.29;100.00;99882.85;105156;1253;61654;-50
2023/07/12 00:18:01;;;;;;;2.00;0.70;;;;;;;14.29;100.00;99882.88;105075;1252;60320;-49
2023/07/12 00:20:35;;;;;;;0.70;0.70;;;;;;;14.29;100.00;99886.71;105008;1251;72603;-49
2023/07/12 00:23:02;;;;;;;0.80;0.70;;;;;;;14.27;100.00;99885.50;109269;1251;68305;-51
2023/07/12 00:25:33;;;;;;;1.20;0.80;;;;;;;14.25;100.00;99884.16;109240;1253;72404;-50
2023/07/12 00:28:00;;;;;;;3.00;0.90;;;;;;;14.23;100.00;99883.60;109262;1251;58761;-50
2023/07/12 00:30:31;;;;;;;1.00;0.90;;;;;;;14.21;100.00;99886.80;109182;1251;58720;-50
2023/07/12 00:33:03;;;;;;;1.10;0.90;;;;;;;14.18;100.00;99892.06;109021;1251;72641;-50
2023/07/12 00:35:31;;;;;;;1.00;0.60;;;;;;;14.13;100.00;99894.64;109245;1251;66753;-49
2023/07/12 00:37:59;;;;;;;1.00;0.70;;;;;;;14.10;100.00;99894.15;109141;1251;74014;-49
2023/07/12 00:41:01;;;;;;;1.40;0.70;;;;;;;14.07;100.00;99894.70;109221;1251;60400;-48
2023/07/12 00:43:37;;;;;;;0.70;0.70;;;;;;;14.05;100.00;99893.56;109095;1251;59959;-48
2023/07/12 00:46:37;;;;;;;1.10;0.60;;;;;;;14.05;100.00;99895.17;109228;1253;73819;-49
2023/07/12 00:49:04;;;;;;;2.40;0.90;;;;;;;14.06;100.00;99891.48;109276;1252;66305;-50
2023/07/12 00:51:34;;;;;;;2.50;0.80;;;;;;;14.06;100.00;99884.09;109212;1253;72429;-49
2023/07/12 00:54:09;;;;;;;2.20;0.90;;;;;;;14.08;100.00;99885.41;109193;1253;60522;-49
2023/07/12 00:56:36;;;;;;;1.20;0.70;;;;;;;14.09;100.00;99886.45;105728;1255;60404;-48
2023/07/12 00:59:09;;;;;;;2.40;0.60;;;;;;;14.09;100.00;99891.13;105210;1251;72630;-47
2023/07/12 01:01:37;;;;;;;2.30;0.90;;;;;;;14.08;100.00;99895.02;109260;1253;67541;-49
2023/07/12 01:04:04;;;;;;;0.80;0.70;;;;;;;14.05;100.00;99895.34;109082;1253;73865;-49
2023/07/12 01:06:32;;;;;;;2.90;0.90;;;;;;;14.03;100.00;99892.93;106482;1258;61638;-48
2023/07/12 01:09:06;;;;;;;1.00;0.80;;;;;;;14.02;100.00;99892.30;104985;1252;60560;-47
2023/07/12 01:11:34;;;;;;;1.10;0.70;;;;;;;14.02;100.00;99886.88;104673;1251;73878;-48
2023/07/12 01:14:08;;;;;;;1.70;0.70;;;;;;;14.01;100.00;99886.55;105343;1251;69430;-50
2023/07/12 01:16:36;;;;;;;4.80;0.70;;;;;;;13.99;100.00;99885.96;105214;1258;73798;-50
2023/07/12 01:19:03;;;;;;;0.70;0.70;;;;;;;13.97;100.00;99886.79;104966;1256;62327;-49
2023/07/12 01:24:31;;;;;;;2.20;1.00;;;;;;;13.98;100.00;99885.82;102327;1289;600981;-49
2023/07/12 01:27:05;;;;;;;0.90;0.80;;;;;;;13.97;100.00;99877.62;104577;1267;59330;-50
2023/07/12 01:29:33;;;;;;;1.00;0.90;;;;;;;13.95;100.00;99877.92;104514;1268;59234;-49
2023/07/12 01:32:00;;;;;;;2.60;0.90;;;;;;;13.91;100.00;99882.48;103907;1268;71022;-49
2023/07/12 01:34:28;;;;;;;0.70;0.70;;;;;;;13.88;100.00;99882.64;104104;1267;67190;-47
2023/07/12 01:36:57;;;;;;;1.40;0.70;;;;;;;13.85;100.00;99882.34;104251;1272;72646;-49
2023/07/12 01:39:25;;;;;;;1.00;0.90;;;;;;;13.79;100.00;99876.89;104114;1279;60849;-48
2023/07/12 01:41:53;;;;;;;5.10;1.80;;;;;;;13.76;100.00;99878.02;104140;1266;59305;-49
2023/07/12 01:44:20;;;;;;;1.30;1.10;;;;;;;13.75;100.00;99876.60;104518;1257;70787;-48
2023/07/12 01:46:51;;;;;;;1.20;1.00;;;;;;;13.74;100.00;99876.29;105278;1258;67660;-49
2023/07/12 01:49:18;;;;;;;1.20;1.10;;;;;;;13.74;100.00;99877.91;104472;1263;72192;-48
2023/07/12 01:51:46;;;;;;;1.60;0.90;;;;;;;13.74;100.00;99877.95;104420;1261;60400;-48
2023/07/12 01:54:14;;;;;;;1.00;0.90;;;;;;;13.73;100.00;99876.70;104650;1262;59586;-49
2023/07/12 01:56:41;;;;;;;1.10;0.90;;;;;;;13.72;100.00;99870.27;104375;1260;73027;-48
2023/07/12 01:59:08;;;;;;;2.20;0.80;;;;;;;13.73;100.00;99875.11;104407;1264;66571;-50
2023/07/12 02:01:35;;;;;;;0.80;0.80;;;;;;;13.72;100.00;99876.80;104494;1260;72716;-50
2023/07/12 02:04:03;;;;;;;4.10;1.00;;;;;;;13.66;100.00;99877.70;105275;1259;61645;-49
2023/07/12 02:06:30;;;;;;;0.90;0.90;;;;;;;13.63;100.00;99873.14;104708;1263;59726;-49
2023/07/12 02:08:58;;;;;;;1.00;0.90;;;;;;;13.62;100.00;99873.59;104609;1263;73544;-48
2023/07/12 02:11:25;;;;;;;1.00;0.90;;;;;;;13.62;100.00;99872.49;104621;1260;67943;-49
2023/07/12 02:13:53;;;;;;;0.80;0.80;;;;;;;13.62;100.00;99874.83;104699;1262;73078;-48
2023/07/12 02:16:20;;;;;;;2.40;1.10;;;;;;;13.62;100.00;99874.63;104987;1259;61618;-50
2023/07/12 02:18:48;;;;;;;4.50;1.00;;;;;;;13.60;100.00;99876.02;104553;1263;60711;-50
2023/07/12 02:21:15;;;;;;;1.10;0.80;;;;;;;13.59;100.00;99874.30;104639;1259;72937;-47
2023/07/12 02:23:42;;;;;;;1.20;0.80;;;;;;;13.55;100.00;99878.11;104681;1262;66497;-50
2023/07/12 02:26:10;;;;;;;0.80;0.80;;;;;;;13.53;100.00;99872.83;104642;1260;72732;-50
2023/07/12 02:28:37;;;;;;;0.80;0.70;;;;;;;13.54;100.00;99873.34;104652;1259;60434;-48
2023/07/12 02:31:20;;;;;;;1.20;0.80;;;;;;;13.57;100.00;99878.02;104882;1259;60146;-50
2023/07/12 02:33:49;;;;;;;1.10;1.00;;;;;;;13.59;100.00;99874.47;105542;1260;73936;-49
2023/07/12 02:36:16;;;;;;;2.30;0.80;;;;;;;13.61;100.00;99880.81;104672;1261;66469;-49
2023/07/12 02:38:45;;;;;;;2.70;0.90;;;;;;;13.65;100.00;99883.52;104541;1260;72453;-50
2023/07/12 02:41:12;;;;;;;3.60;0.80;;;;;;;13.69;100.00;99889.25;104543;1259;61762;-50
2023/07/12 02:43:40;;;;;;;0.80;0.80;;;;;;;13.70;100.00;99891.65;104632;1262;59746;-48
2023/07/12 02:46:07;;;;;;;2.70;0.80;;;;;;;13.69;100.00;99894.28;104624;1260;71392;-49
2023/07/12 02:48:35;;;;;;;0.90;0.80;;;;;;;13.67;100.00;99892.98;105716;1263;66309;-49
2023/07/12 02:51:02;;;;;;;1.00;0.90;;;;;;;13.65;100.00;99894.52;104569;1260;72468;-49
2023/07/12 02:53:30;;;;;;;1.40;0.80;;;;;;;13.66;100.00;99898.60;104681;1262;59792;-49
2023/07/12 02:55:57;;;;;;;0.80;0.80;;;;;;;13.69;100.00;99898.05;104699;1260;59749;-49
2023/07/12 02:58:25;;;;;;;1.00;0.90;;;;;;;13.72;100.00;99900.59;104510;1259;72870;-49
2023/07/12 03:00:57;;;;;;;1.20;0.80;;;;;;;13.77;100.00;99903.35;104616;1260;65645;-48
2023/07/12 03:03:27;;;;;;;1.10;0.90;;;;;;;13.83;100.00;99899.77;105164;1264;72976;-48
2023/07/12 03:05:54;;;;;;;1.00;0.70;;;;;;;13.87;100.00;99898.94;105077;1264;61697;-49
2023/07/12 03:08:22;;;;;;;0.90;0.80;;;;;;;13.93;100.00;99899.90;104574;1260;59572;-50
2023/07/12 03:10:49;;;;;;;1.10;1.00;;;;;;;13.97;100.00;99900.14;104426;1261;73053;-48
2023/07/12 03:13:16;;;;;;;1.20;0.80;;;;;;;14.03;100.00;99904.90;104650;1260;67998;-47
2023/07/12 03:15:44;;;;;;;0.80;0.80;;;;;;;14.08;100.00;99909.46;104518;1260;72443;-49
2023/07/12 03:18:11;;;;;;;0.70;0.70;;;;;;;14.11;100.00;99914.09;104641;1259;60485;-48
2023/07/12 03:20:38;;;;;;;0.70;0.70;;;;;;;14.16;100.00;99913.48;104553;1260;60018;-47
2023/07/12 03:23:06;;;;;;;1.90;0.70;;;;;;;14.19;100.00;99913.25;104666;1258;71789;-48
2023/07/12 03:25:33;;;;;;;0.70;0.70;;;;;;;14.23;100.00;99911.22;104538;1259;67901;-49
2023/07/12 03:28:00;;;;;;;1.10;0.80;;;;;;;14.26;100.00;99910.84;104617;1260;72644;-47
2023/07/12 03:30:28;;;;;;;0.80;0.80;;;;;;;14.30;100.00;99922.36;104785;1263;60389;-48
2023/07/12 03:32:55;;;;;;;1.00;0.80;;;;;;;14.32;100.00;99931.80;104644;1260;60587;-48
2023/07/12 03:35:23;;;;;;;1.40;0.80;;;;;;;14.34;100.00;99938.70;104637;1263;73015;-49
2023/07/12 03:37:50;;;;;;;1.20;0.80;;;;;;;14.35;100.00;99937.55;104661;1259;68407;-49
2023/07/12 03:40:17;;;;;;;2.20;1.00;;;;;;;14.35;100.00;99940.10;104800;1260;71460;-49
2023/07/12 03:42:45;;;;;;;1.90;0.80;;;;;;;14.36;100.00;99941.27;104721;1261;60112;-48
2023/07/12 03:45:12;;;;;;;1.10;0.80;;;;;;;14.38;100.00;99944.23;104614;1260;59683;-49
2023/07/12 03:47:39;;;;;;;0.90;0.80;;;;;;;14.40;100.00;99950.84;104663;1258;71470;-49
2023/07/12 03:50:08;;;;;;;1.30;0.90;;;;;;;14.42;100.00;99956.88;108630;1259;68007;-50
2023/07/12 03:52:35;;;;;;;2.80;0.70;;;;;;;14.42;100.00;99958.83;108648;1259;71237;-50
2023/07/12 03:55:03;;;;;;;1.70;0.70;;;;;;;14.44;100.00;99965.25;108701;1259;59413;-49
2023/07/12 03:57:30;;;;;;;0.70;0.70;;;;;;;14.44;100.00;99961.61;108796;1257;58715;-49
2023/07/12 03:59:58;;;;;;;1.80;0.70;;;;;;;14.48;100.00;99957.77;108712;1259;74869;-50
2023/07/12 04:02:25;;;;;;;2.30;0.60;;;;;;;14.53;100.00;99955.11;108689;1259;65715;-50
2023/07/12 04:04:52;;;;;;;1.10;0.70;;;;;;;14.58;100.00;99953.33;108749;1258;71453;-48
2023/07/12 04:07:19;;;;;;;1.70;0.70;;;;;;;14.64;100.00;99960.38;108747;1259;61779;-48
2023/07/12 04:09:47;;;;;;;0.70;0.60;;;;;;;14.71;100.00;99966.95;108724;1257;60025;-49
2023/07/12 04:12:14;;;;;;;1.30;0.70;;;;;;;14.78;100.00;99967.67;108280;1259;73004;-50
2023/07/12 04:14:41;;;;;;;4.50;0.70;;;;;;;14.84;100.00;99963.64;104652;1260;65602;-50
2023/07/12 04:17:09;;;;;;;3.90;0.70;;;;;;;14.90;100.00;99964.19;104479;1257;71449;-50
2023/07/12 04:19:37;;;;;;;1.60;0.70;;;;;;;14.96;100.00;99965.73;104802;1259;61363;-50
2023/07/12 04:22:04;;;;;;;0.80;0.80;;;;;;;15.05;100.00;99963.95;104781;1263;59676;-48
2023/07/12 04:24:31;;;;;;;1.50;1.00;;;;;;;15.11;100.00;99965.35;104565;1259;74204;-47
2023/07/12 04:26:59;;;;;;;2.60;0.80;;;;;;;15.18;100.00;99967.63;105498;1260;66388;-50
2023/07/12 04:29:29;;;;;;;3.30;0.80;;;;;;;15.25;100.00;99968.98;104962;1259;72620;-47
2023/07/12 04:31:57;;;;;;;1.40;0.80;;;;;;;15.29;100.00;99973.38;104653;1264;61544;-49
2023/07/12 04:34:24;;;;;;;1.00;0.70;;;;;;;15.31;100.00;99976.19;104560;1260;59566;-49
2023/07/12 04:37:06;;;;;;;2.40;0.50;;;;;;;15.31;100.00;99976.92;105986;1259;72254;-51
2023/07/12 04:39:34;;;;;;;0.70;0.60;;;;;;;15.32;100.00;99983.36;105437;1258;67061;-48
2023/07/12 04:42:02;;;;;;;1.10;0.70;;;;;;;15.34;100.00;99985.20;105016;1260;71170;-50
2023/07/12 04:44:30;;;;;;;0.80;0.70;;;;;;;15.39;100.00;99992.13;104662;1260;61878;-49
2023/07/12 04:46:57;;;;;;;2.30;0.60;;;;;;;15.44;100.00;99996.67;104684;1257;59969;-50
2023/07/12 04:49:25;;;;;;;2.60;0.70;;;;;;;15.48;100.00;99996.56;104665;1260;73574;-49
2023/07/12 04:51:53;;;;;;;0.80;0.70;;;;;;;15.53;100.00;99994.65;105646;1260;65631;-50
2023/07/12 04:54:21;;;;;;;0.70;0.70;;;;;;;15.60;100.00;99995.34;104629;1261;72698;-49
2023/07/12 04:56:49;;;;;;;0.70;0.70;;;;;;;15.64;100.00;99992.35;105024;1261;62190;-50
2023/07/12 04:59:18;;;;;;;3.00;0.70;;;;;;;15.69;100.00;99990.90;104730;1260;60027;-50
2023/07/12 05:01:45;;;;;;;1.40;0.70;;;;;;;15.75;100.00;99992.16;104574;1259;74053;-49
2023/07/12 05:04:14;;;;;;;0.80;0.60;;;;;;;15.81;100.00;99987.04;104839;1257;66900;-50
2023/07/12 05:06:41;;;;;;;1.40;0.60;;;;;;;15.88;100.00;99987.27;105049;1257;72433;-48
2023/07/12 05:09:08;;;;;;;0.50;0.50;;;;;;;15.97;100.00;99984.02;104784;1259;61660;-49
2023/07/12 05:11:36;;;;;;;0.50;0.50;;;;;;;16.03;100.00;99977.27;104792;1256;59989;-50
2023/07/12 05:14:04;;;;;;;0.90;0.70;;;;;;;16.08;100.00;99976.53;104988;1257;72061;-50
2023/07/12 05:16:31;;;;;;;0.50;0.50;;;;;;;16.16;100.00;99975.10;104871;1258;68559;-49
2023/07/12 05:18:58;;;;;;;0.70;0.50;;;;;;;16.25;100.00;99974.11;105005;1257;72683;-50
2023/07/12 05:21:26;;;;;;;2.30;0.60;;;;;;;16.35;100.00;99970.55;105301;1257;60067;-50
2023/07/12 05:23:53;;;;;;;2.70;0.60;;;;;;;16.42;100.00;99972.41;104874;1257;60193;-50
2023/07/12 05:26:21;;;;;;;0.90;0.60;;;;;;;16.47;100.00;99972.58;104842;1257;72806;-50
2023/07/12 05:28:48;;;;;;;3.60;0.40;;;;;;;16.51;100.00;99971.58;104871;1257;67153;-50
2023/07/12 05:31:15;;;;;;;0.50;0.40;;;;;;;16.57;100.00;99964.08;104711;1256;72457;-49
2023/07/12 05:33:45;;;;;;;6.60;0.50;;;;;;;16.66;100.00;99965.51;105303;1257;61229;-51
2023/07/12 05:36:13;;;;;;;0.60;0.40;;;;;;;16.74;100.00;99961.89;105128;1256;61649;-49
2023/07/12 05:38:41;;;;;;;1.50;0.30;;;;;;;16.82;100.00;99959.64;105228;1259;72829;-50
2023/07/12 05:41:08;;;;;;;0.50;0.30;;;;;;;16.91;100.00;99948.54;104717;1258;69170;-50
2023/07/12 05:43:37;;;;;;;1.50;0.30;;;;;;;16.98;100.00;99947.30;105181;1261;73113;-49
2023/07/12 05:46:05;;;;;;;0.70;0.30;;;;;;;17.04;100.00;99944.50;104925;1254;60415;-49
2023/07/12 05:48:33;;;;;;;0.40;0.30;;;;;;;17.09;100.00;99942.48;105078;1254;60491;-49
2023/07/12 05:51:01;;;;;;;0.30;0.30;;;;;;;17.14;100.00;99941.22;104921;1259;73368;-51
2023/07/12 05:53:28;;;;;;;0.90;0.40;;;;;;;17.18;100.00;99937.11;104806;1255;66870;-54
2023/07/12 05:55:56;;;;;;;0.30;0.30;;;;;;;17.23;100.00;99936.23;104986;1257;73228;-52
2023/07/12 05:58:24;;;;;;;2.60;0.30;;;;;;;17.28;100.00;99932.61;104914;1254;60559;-50
2023/07/12 06:00:56;;;;;;;2.10;0.30;;;;;;;17.33;100.00;99928.91;104891;1254;61169;-51
2023/07/12 06:03:24;;;;;;;0.70;0.30;;;;;;;17.37;100.00;99931.14;104891;1254;74402;-51
2023/07/12 06:05:52;;;;;;;3.20;0.40;;;;;;;17.41;100.00;99927.48;105001;1258;66896;-50
2023/07/12 06:08:20;;;;;;;0.40;0.30;;;;;;;17.44;100.00;99928.69;104923;1259;73178;-51
2023/07/12 06:10:47;;;;;;;0.40;0.20;;;;;;;17.47;100.00;99930.83;105116;1257;60554;-51
2023/07/12 06:13:14;;;;;;;0.40;0.40;;;;;;;17.50;100.00;99929.33;104874;1254;60487;-51
2023/07/12 06:15:42;;;;;;;0.40;0.30;;;;;;;17.53;100.00;99924.02;104921;1256;73870;-49
2023/07/12 06:18:09;;;;;;;0.30;0.30;;;;;;;17.57;100.00;99918.67;104971;1256;65606;-50
2023/07/12 06:20:38;;;;;;;0.50;0.30;;;;;;;17.61;100.00;99921.63;104967;1258;72009;-51
2023/07/12 06:23:06;;;;;;;0.50;0.20;;;;;;;17.65;100.00;99919.89;104883;1259;60499;-50
2023/07/12 06:25:33;;;;;;;2.10;0.30;;;;;;;17.68;100.00;99917.06;104867;1256;60581;-48
2023/07/12 06:28:00;;;;;;;1.30;0.30;;;;;;;17.73;100.00;99916.17;104854;1254;72962;-49
2023/07/12 06:30:28;;;;;;;0.80;0.20;;;;;;;17.77;100.00;99918.58;104637;1254;68021;-49
2023/07/12 06:32:55;;;;;;;0.80;0.20;;;;;;;17.81;100.00;99918.34;104931;1259;73187;-50
2023/07/12 06:35:22;;;;;;;0.50;0.30;;;;;;;17.85;100.00;99915.46;104902;1259;60579;-50
2023/07/12 06:37:50;;;;;;;1.30;0.30;;;;;;;17.89;100.00;99906.28;104836;1259;60403;-49
2023/07/12 06:40:17;;;;;;;2.50;0.30;;;;;;;17.95;100.00;99904.02;104778;1254;75091;-47
2023/07/12 06:42:44;;;;;;;1.30;0.20;;;;;;;18.00;100.00;99899.21;104903;1259;66336;-49
2023/07/12 06:45:12;;;;;;;0.70;0.20;;;;;;;18.05;100.00;99892.82;104810;1259;72397;-50
2023/07/12 06:47:39;;;;;;;0.30;0.20;;;;;;;18.10;100.00;99890.84;104717;1256;60700;-49
2023/07/12 06:50:08;;;;;;;0.30;0.30;;;;;;;18.13;100.00;99887.46;104816;1257;60476;-50
2023/07/12 06:52:35;;;;;;;0.70;0.40;;;;;;;18.18;100.00;99887.91;105808;1254;73834;-50
2023/07/12 06:55:03;;;;;;;0.80;0.20;;;;;;;18.23;100.00;99884.60;104878;1259;67565;-50
2023/07/12 06:57:30;;;;;;;0.30;0.20;;;;;;;18.28;100.00;99887.98;108960;1254;73087;-52
2023/07/12 06:59:58;;;;;;;0.10;0.10;;;;;;;18.32;100.00;99891.49;109009;1254;58900;-52
2023/07/12 07:02:25;;;;;;;1.10;0.20;;;;;;;18.36;100.00;99887.92;109068;1254;58754;-51
2023/07/12 07:04:52;;;;;;;0.30;0.20;;;;;;;18.38;100.00;99877.36;109077;1254;73881;-52
2023/07/12 07:07:20;;;;;;;0.20;0.20;;;;;;;18.41;100.00;99874.45;109051;1256;67512;-52
2023/07/12 07:09:47;;;;;;;1.60;0.20;;;;;;;18.41;100.00;99873.86;108968;1254;71481;-52
2023/07/12 07:12:15;;;;;;;0.20;0.20;;;;;;;18.43;100.00;99875.20;109065;1254;60050;-51
2023/07/12 07:14:42;;;;;;;0.20;0.20;;;;;;;18.46;100.00;99869.65;109053;1254;58845;-52
2023/07/12 07:17:11;;;;;;;0.10;0.10;;;;;;;18.52;100.00;99871.17;109103;1254;72667;-51
2023/07/12 07:19:38;;;;;;;0.10;0.10;;;;;;;18.62;100.00;99866.79;105487;1254;65141;-49
2023/07/12 07:22:05;;;;;;;0.20;0.20;;;;;;;18.72;100.00;99866.92;104841;1260;71239;-51
2023/07/12 07:24:33;;;;;;;0.20;0.20;;;;;;;18.79;100.00;99857.55;104866;1257;60495;-51
2023/07/12 07:27:00;;;;;;;0.20;0.10;;;;;;;18.86;100.00;99855.02;104852;1259;60624;-49
2023/07/12 07:29:28;;;;;;;0.20;0.20;;;;;;;18.95;100.00;99850.67;104881;1259;73914;-51
2023/07/12 07:31:55;;;;;;;0.20;0.20;;;;;;;19.01;100.00;99846.91;104894;1257;65534;-50
2023/07/12 07:34:23;;;;;;;0.20;0.20;;;;;;;19.06;100.00;99845.05;105917;1257;73515;-50
2023/07/12 07:36:51;;;;;;;1.00;0.20;;;;;;;19.11;100.00;99843.57;104965;1254;60553;-51
2023/07/12 07:39:18;;;;;;;0.10;0.10;;;;;;;19.16;100.00;99847.67;104889;1255;63498;-52
2023/07/12 07:41:45;;;;;;;2.60;0.20;;;;;;;19.23;100.00;99844.91;104980;1258;73850;-50
2023/07/12 07:44:13;;;;;;;1.40;0.20;;;;;;;19.26;100.00;99841.90;104830;1254;65971;-50
2023/07/12 07:46:40;;;;;;;2.20;0.20;;;;;;;19.26;100.00;99842.77;104800;1259;72598;-52
2023/07/12 07:49:08;;;;;;;0.40;0.10;;;;;;;19.29;100.00;99842.34;104784;1259;60556;-52
2023/07/12 07:51:35;;;;;;;1.20;0.10;;;;;;;19.37;100.00;99843.92;105221;1255;60720;-51
2023/07/12 07:54:03;;;;;;;0.20;0.20;;;;;;;19.47;100.00;99834.92;104885;1259;71996;-51
2023/07/12 07:56:30;;;;;;;0.40;0.20;;;;;;;19.54;100.00;99824.51;104974;1258;65516;-51
2023/07/12 07:58:57;;;;;;;1.90;0.40;;;;;;;19.63;100.00;99823.35;105021;1254;73200;-52
2023/07/12 08:01:25;;;;;;;0.60;0.20;;;;;;;19.76;100.00;99818.30;104992;1259;60669;-51
2023/07/12 08:03:52;;;;;;;0.20;0.20;;;;;;;19.86;100.00;99809.90;104918;1254;60552;-51
2023/07/12 08:06:20;;;;;;;0.20;0.20;;;;;;;19.94;100.00;99813.18;104926;1259;73326;-52
2023/07/12 08:08:47;;;;;;;0.20;0.20;;;;;;;19.99;100.00;99817.51;104892;1257;66737;-52
2023/07/12 08:11:14;;;;;;;0.20;0.20;;;;;;;20.03;100.00;99818.66;104853;1259;71030;-52
2023/07/12 08:13:42;;;;;;;0.20;0.20;;;;;;;20.00;100.00;99824.52;104958;1257;60508;-51
2023/07/12 08:16:09;;;;;;;1.00;0.10;;;;;;;19.97;100.00;99825.31;105438;1259;60456;-52
2023/07/12 08:18:38;;;;;;;0.40;0.20;;;;;;;19.93;100.00;99824.98;104975;1259;72631;-52
2023/07/12 08:21:05;;;;;;;2.10;0.20;;;;;;;19.89;100.00;99825.73;104917;1257;65744;-52
2023/07/12 08:23:33;;;;;;;0.60;0.30;;;;;;;19.90;100.00;99825.75;105221;1259;71604;-53
2023/07/12 08:26:00;;;;;;;0.30;0.20;;;;;;;19.97;100.00;99830.46;105004;1257;60616;-52
2023/07/12 08:28:28;;;;;;;1.00;0.10;;;;;;;20.06;100.00;99828.77;104937;1254;61198;-53
2023/07/12 08:30:55;;;;;;;1.50;0.20;;;;;;;20.14;100.00;99818.80;105020;1259;74831;-51
2023/07/12 08:33:22;;;;;;;8.20;2.80;;;;;;;20.24;100.00;99818.82;104925;1254;66760;-52
2023/07/12 08:35:50;;;;;;;0.40;0.20;;;;;;;20.35;100.00;99811.10;104899;1259;71460;-52
2023/07/12 08:38:18;;;;;;;0.20;0.20;;;;;;;20.46;100.00;99803.04;105323;1254;60589;-51
2023/07/12 08:40:50;;;;;;;0.10;0.10;;;;;;;20.52;100.00;99794.14;105139;1259;60464;-52
2023/07/12 08:43:22;;;;;;;0.50;0.20;;;;;;;20.53;100.00;99795.67;104712;1254;72603;-51
2023/07/12 08:45:50;;;;;;;0.20;0.20;;;;;;;20.59;100.00;99798.64;104947;1254;65500;-51
2023/07/12 08:48:20;;;;;;;0.20;0.10;;;;;;;20.66;100.00;99799.58;106949;1254;73106;-51
2023/07/12 08:50:48;;;;;;;0.30;0.20;;;;;;;20.73;100.00;99800.63;105094;1257;60629;-51
2023/07/12 08:53:26;;;;;;;0.20;0.20;;;;;;;20.75;100.00;99805.73;104722;1255;60652;-51
2023/07/12 08:55:53;;;;;;;0.20;0.20;;;;;;;20.72;100.00;99801.83;104943;1256;73846;-52
2023/07/12 08:58:45;;;;;;;0.20;0.10;;;;;;;20.70;100.00;99800.36;104904;1257;66971;-51
2023/07/12 09:01:43;;;;;;;0.10;0.10;;;;;;;20.69;100.00;99803.67;104891;1256;72653;-51
2023/07/12 09:04:27;;;;;;;0.30;0.10;;;;;;;20.75;100.00;99807.91;105365;1254;62378;-51
2023/07/12 09:07:00;;;;;;;0.10;0.10;;;;;;;20.84;100.00;99802.77;105034;1257;60780;-51
2023/07/12 09:09:27;;;;;;;0.20;0.10;;;;;;;20.89;100.00;99802.48;105267;1257;73439;-50
2023/07/12 09:11:55;;;;;;;0.30;0.20;;;;;;;20.95;100.00;99799.86;104812;1259;67190;-51
2023/07/12 09:14:23;;;;;;;0.30;0.20;;;;;;;21.03;100.00;99797.34;104960;1257;73037;-50
2023/07/12 09:16:56;;;;;;;2.70;0.10;;;;;;;21.14;100.00;99791.98;105006;1257;60460;-51
2023/07/12 09:19:27;;;;;;;1.70;0.20;;;;;;;21.27;100.00;99790.61;105000;1257;60325;-51
2023/07/12 09:21:59;;;;;;;1.70;0.20;;;;;;;21.27;100.00;99792.68;104832;1254;73936;-50
2023/07/12 09:24:31;;;;;;;0.20;0.20;;;;;;;21.15;100.00;99791.88;104640;1257;65681;-50
2023/07/12 09:27:04;;;;;;;0.20;0.10;;;;;;;21.08;100.00;99792.11;105211;1256;73682;-50
2023/07/12 09:29:35;;;;;;;0.20;0.10;;;;;;;21.03;100.00;99798.42;106113;1259;60623;-49
2023/07/12 09:32:26;;;;;;;0.20;0.20;;;;;;;21.02;100.00;99794.16;104863;1259;60826;-51
2023/07/12 09:34:54;;;;;;;0.20;0.20;;;;;;;21.04;100.00;99787.98;105064;1259;75958;-52
2023/07/12 09:37:22;;;;;;;1.80;0.20;;;;;;;21.12;100.00;99789.96;104856;1259;65529;-51
2023/07/12 09:39:57;;;;;;;0.20;0.20;;;;;;;21.22;100.00;99779.55;105108;1257;72669;-52
2023/07/12 09:42:26;;;;;;;1.30;0.20;;;;;;;21.23;100.00;99784.63;104913;1256;60372;-51
2023/07/12 09:44:53;;;;;;;0.30;0.20;;;;;;;21.20;100.00;99786.71;104812;1257;60466;-51
2023/07/12 09:47:37;;;;;;;0.20;0.20;;;;;;;21.18;100.00;99786.55;104856;1257;73745;-51
2023/07/12 09:50:28;;;;;;;1.10;0.20;;;;;;;21.17;100.00;99790.99;104692;1254;67459;-52
2023/07/12 09:53:04;;;;;;;2.20;0.20;;;;;;;21.20;100.00;99797.29;104965;1255;72489;-50
2023/07/12 09:55:51;;;;;;;0.30;0.20;;;;;;;21.24;100.00;99797.14;104866;1257;60507;-51
2023/07/12 09:58:29;;;;;;;0.20;0.20;;;;;;;21.31;100.00;99794.99;108993;1254;58454;-52
2023/07/12 10:01:03;;;;;;;0.90;0.20;;;;;;;21.42;100.00;99791.03;108982;1253;73849;-53
2023/07/12 10:03:34;;;;;;;0.20;0.10;;;;;;;21.45;100.00;99788.52;109103;1254;65643;-52
2023/07/12 10:06:09;;;;;;;1.30;0.20;;;;;;;21.43;100.00;99790.55;108854;1254;72502;-52
2023/07/12 10:09:08;;;;;;;1.60;0.20;;;;;;;21.38;100.00;99786.64;108882;1255;59177;-52
2023/07/12 10:11:43;;;;;;;0.20;0.20;;;;;;;21.31;100.00;99785.31;108809;1254;58751;-52
2023/07/12 10:14:12;;;;;;;1.00;0.20;;;;;;;21.29;100.00;99790.80;108842;1253;73777;-53
2023/07/12 10:16:45;;;;;;;1.40;0.20;;;;;;;21.23;100.00;99790.27;106674;1261;65817;-51
2023/07/12 10:19:27;;;;;;;1.90;0.20;;;;;;;21.13;100.00;99789.46;104837;1254;71483;-51
2023/07/12 10:21:55;;;;;;;0.60;0.20;;;;;;;21.10;100.00;99791.04;104788;1257;62321;-51
2023/07/12 10:24:27;;;;;;;0.20;0.20;;;;;;;21.05;100.00;99792.79;104773;1254;60649;-52
2023/07/12 10:26:55;;;;;;;2.70;0.20;;;;;;;21.00;100.00;99791.84;109017;1254;74367;-52
2023/07/12 10:29:27;;;;;;;0.20;0.20;;;;;;;20.97;100.00;99790.95;108938;1255;67484;-52
2023/07/12 10:31:56;;;;;;;0.20;0.20;;;;;;;20.99;100.00;99789.84;105195;1257;72601;-53
2023/07/12 10:34:28;;;;;;;0.40;0.10;;;;;;;21.03;100.00;99790.53;106158;1256;60654;-51
2023/07/12 10:37:03;;;;;;;0.30;0.20;;;;;;;21.09;100.00;99786.20;104727;1257;60637;-53
2023/07/12 10:39:31;;;;;;;0.20;0.20;;;;;;;21.12;100.00;99786.64;104538;1262;73958;-52
2023/07/12 10:42:03;;;;;;;0.20;0.20;;;;;;;21.11;100.00;99782.52;104696;1262;65602;-52
2023/07/12 10:44:35;;;;;;;0.20;0.20;;;;;;;21.09;100.00;99780.98;106227;1257;71469;-52
2023/07/12 10:47:05;;;;;;;1.30;0.20;;;;;;;21.10;100.00;99770.08;104952;1259;60478;-52
2023/07/12 10:49:57;;;;;;;0.10;0.10;;;;;;;21.17;100.00;99760.14;104966;1259;60463;-52
2023/07/12 10:52:29;;;;;;;0.10;0.10;;;;;;;21.34;100.00;99758.23;104797;1255;72177;-54
2023/07/12 10:55:06;;;;;;;0.10;0.10;;;;;;;21.52;100.00;99759.83;105041;1257;65686;-53
2023/07/12 10:57:38;;;;;;;1.30;0.10;;;;;;;21.70;100.00;99762.17;106028;1257;74485;-53
2023/07/12 11:00:26;;;;;;;0.40;0.20;;;;;;;21.85;100.00;99757.96;105225;1257;60918;-53
2023/07/12 11:03:15;;;;;;;0.20;0.20;;;;;;;22.04;100.00;99760.00;105331;1257;60336;-53
2023/07/12 11:06:02;;;;;;;4.60;0.10;;;;;;;22.24;100.00;99758.20;105145;1257;73782;-52
2023/07/12 11:08:32;;;;;;;0.80;0.20;;;;;;;22.41;100.00;99755.72;105034;1255;65693;-53
2023/07/12 11:11:20;;;;;;;0.10;0.10;;;;;;;22.53;100.00;99753.56;104971;1261;72594;-52
2023/07/12 11:13:52;;;;;;;2.90;0.20;;;;;;;22.57;100.00;99759.00;104963;1259;60516;-52
2023/07/12 11:16:20;;;;;;;0.20;0.20;;;;;;;22.52;100.00;99762.96;105119;1259;60282;-52
2023/07/12 11:18:52;;;;;;;0.90;0.20;;;;;;;22.47;100.00;99759.15;105126;1254;74362;-51
2023/07/12 11:21:26;;;;;;;0.20;0.10;;;;;;;22.42;100.00;99760.52;104867;1259;66916;-52
2023/07/12 11:23:54;;;;;;;0.30;0.20;;;;;;;22.34;100.00;99762.74;104844;1259;72456;-51
2023/07/12 11:26:28;;;;;;;1.40;0.30;;;;;;;22.25;100.00;99766.95;104933;1256;60968;-50
2023/07/12 11:29:33;;;;;;;0.20;0.20;;;;;;;22.19;100.00;99770.84;104988;1262;60557;-51
2023/07/12 11:32:15;;;;;;;0.20;0.10;;;;;;;22.15;100.00;99773.00;104871;1259;73881;-50